Llucmajor, Spain
Current Conditions -  °F | °C
As of 2:00 PM on Saturday 25 Oct 2014 (Local Time) from LEPA Reporting Station
Clear Clear  
Wind Chill: 81°   Ceiling: Unl
Heat Index: 81°   Visibility: 6mi
Dew Point: 57°   Wind: 9mph
Humidity: 45%   Direction: 230°SW
Pressure: 30.09"   Gusts: NA
Location:  39.49°N, 2.89°E
Report Text: LEPA 251200Z 23008KT 200V260 CAVOK 27/14 Q1019 NOSIG
Loading
Personal Weather Stations






























Interactive Weather Map
Tropical Storm Tracking
New forecast layout! Learn more

10-Day Weather Forecast

Advertisements
Track Severe Weather on mobile